createdAt,value
2023-03-24T00:03:05.940Z,4.50
2023-03-24T00:08:08.297Z,3.90
2023-03-24T00:13:10.161Z,5.18
2023-03-24T00:18:11.615Z,4.25
2023-03-24T00:23:13.015Z,3.75
2023-03-24T00:28:14.454Z,3.40
2023-03-24T00:33:15.873Z,3.70
2023-03-24T00:38:17.606Z,3.90
2023-03-24T00:43:19.217Z,3.92
2023-03-24T00:48:24.204Z,4.18
2023-03-24T00:53:29.171Z,3.72
2023-03-24T00:58:34.883Z,4.00
2023-03-24T01:03:48.311Z,3.80
2023-03-24T01:08:53.937Z,3.97
2023-03-24T01:13:55.423Z,4.10
2023-03-24T01:18:56.816Z,4.28
2023-03-24T01:23:58.273Z,3.88
2023-03-24T01:28:59.724Z,3.72
2023-03-24T01:34:01.430Z,4.00
2023-03-24T01:39:03.037Z,4.60
2023-03-24T01:44:24.640Z,3.78
2023-03-24T01:49:28.823Z,3.50
2023-03-24T01:54:34.098Z,3.30
2023-03-24T01:59:36.743Z,3.65
2023-03-24T02:04:40.369Z,3.83
2023-03-24T02:09:41.790Z,3.70
2023-03-24T02:14:43.777Z,3.63
2023-03-24T02:20:05.860Z,2.78
2023-03-24T02:25:13.390Z,2.75
2023-03-24T02:30:17.696Z,3.40
2023-03-24T02:35:19.032Z,2.20
2023-03-24T02:40:23.268Z,1.80
2023-03-24T02:45:35.180Z,1.50
2023-03-24T02:50:49.676Z,1.90
2023-03-24T02:56:04.084Z,2.00
2023-03-24T03:01:07.862Z,1.90
2023-03-24T03:06:18.117Z,1.90
2023-03-24T03:11:19.492Z,2.35
2023-03-24T03:16:34.605Z,2.13
2023-03-24T03:21:39.247Z,2.58
2023-03-24T03:26:41.733Z,2.15
2023-03-24T03:31:49.673Z,2.53
2023-03-24T03:36:56.949Z,2.92
2023-03-24T03:41:58.503Z,2.33
2023-03-24T03:47:00.334Z,2.50
2023-03-24T03:52:02.342Z,2.85
2023-03-24T03:57:04.790Z,2.38
2023-03-24T04:02:19.026Z,2.58
2023-03-24T04:07:24.208Z,2.08
2023-03-24T04:12:25.966Z,2.00
2023-03-24T04:17:42.926Z,1.98
2023-03-24T04:23:03.190Z,2.55
2023-03-24T04:28:18.510Z,1.75
2023-03-24T04:33:29.044Z,2.35
2023-03-24T04:38:34.311Z,2.90
2023-03-24T04:43:36.736Z,2.53
2023-03-24T04:48:38.257Z,2.40
2023-03-24T04:53:39.794Z,2.30
2023-03-24T04:58:41.565Z,2.70
2023-03-24T05:03:46.010Z,2.50
2023-03-24T05:08:47.922Z,2.10
2023-03-24T05:13:50.635Z,2.85
2023-03-24T05:18:52.287Z,2.63
2023-03-24T05:23:53.813Z,2.90
2023-03-24T05:28:55.234Z,2.92
2023-03-24T05:33:56.834Z,2.15
2023-03-24T05:38:58.396Z,2.72
2023-03-24T05:44:00.075Z,3.40
2023-03-24T05:49:01.504Z,3.45
2023-03-24T05:54:06.282Z,3.58
2023-03-24T05:59:08.006Z,2.63
2023-03-24T06:04:09.635Z,2.72
2023-03-24T06:09:12.265Z,3.20
2023-03-24T06:14:13.690Z,3.53
2023-03-24T06:19:15.510Z,3.55
2023-03-24T06:24:18.252Z,3.58
2023-03-24T06:29:19.646Z,3.60
2023-03-24T06:34:22.217Z,3.38
2023-03-24T06:39:24.076Z,4.05
2023-03-24T06:44:27.416Z,3.97
2023-03-24T06:49:28.840Z,3.75
2023-03-24T06:54:30.669Z,3.67
2023-03-24T06:59:32.114Z,4.15
2023-03-24T07:04:36.580Z,3.47
2023-03-24T07:09:38.752Z,4.32
2023-03-24T07:14:40.160Z,4.65
2023-03-24T07:19:41.673Z,4.13
2023-03-24T07:24:43.115Z,3.33
2023-03-24T07:29:44.653Z,3.80
2023-03-24T07:34:46.321Z,4.30
2023-03-24T07:39:48.134Z,3.72
2023-03-24T07:44:49.585Z,3.28
2023-03-24T07:49:51.171Z,4.30
2023-03-24T07:54:52.620Z,3.70
2023-03-24T07:59:54.012Z,3.45
2023-03-24T08:04:56.563Z,4.03
2023-03-24T08:09:57.900Z,4.63
2023-03-24T08:14:59.330Z,3.97
2023-03-24T08:20:02.748Z,3.83
2023-03-24T08:25:06.657Z,4.32
2023-03-24T08:30:10.532Z,5.05
2023-03-24T08:35:18.874Z,3.85
2023-03-24T08:40:24.035Z,3.90
2023-03-24T08:45:27.622Z,3.72
2023-03-24T08:50:32.454Z,4.72
2023-03-24T08:55:33.946Z,4.70
2023-03-24T09:00:35.344Z,4.40
2023-03-24T09:05:44.724Z,4.35
2023-03-24T09:15:52.869Z,3.40
2023-03-24T09:20:55.122Z,3.83
2023-03-24T09:25:56.581Z,3.42
2023-03-24T09:31:00.757Z,4.72
2023-03-24T09:36:02.585Z,3.15
2023-03-24T09:41:04.492Z,3.22
2023-03-24T09:46:11.460Z,3.80
2023-03-24T09:51:21.800Z,3.15
2023-03-24T09:56:23.958Z,3.67
2023-03-24T10:01:26.411Z,3.58
2023-03-24T10:06:32.045Z,3.28
2023-03-24T10:11:42.279Z,2.97
2023-03-24T10:16:57.345Z,3.58
2023-03-24T10:22:10.603Z,3.40
2023-03-24T10:27:22.968Z,3.25
2023-03-24T10:32:27.547Z,3.13
2023-03-24T10:37:30.980Z,3.28
2023-03-24T10:42:34.439Z,2.30
2023-03-24T10:47:36.510Z,2.80
2023-03-24T10:52:42.090Z,2.83
2023-03-24T10:57:48.448Z,2.42
2023-03-24T11:02:55.571Z,3.53
2023-03-24T11:08:02.790Z,3.55
2023-03-24T11:13:05.304Z,3.03
2023-03-24T11:18:14.228Z,3.08
2023-03-24T11:23:26.599Z,3.03
2023-03-24T11:28:28.447Z,3.58
2023-03-24T11:33:36.230Z,2.92
2023-03-24T11:38:38.405Z,3.80
2023-03-24T11:43:41.153Z,3.72
2023-03-24T11:48:50.950Z,2.88
2023-03-24T11:53:53.714Z,3.15
2023-03-24T11:59:04.677Z,3.70
2023-03-24T12:04:06.206Z,2.47
2023-03-24T12:09:22.904Z,4.05
2023-03-24T12:14:42.987Z,2.65
2023-03-24T12:19:51.276Z,3.83
2023-03-24T12:24:52.731Z,2.67
2023-03-24T12:29:59.446Z,2.40
2023-03-24T12:35:13.561Z,2.45
2023-03-24T12:40:20.839Z,2.85
2023-03-24T12:45:37.899Z,1.98
2023-03-24T12:50:42.206Z,2.70
2023-03-24T12:55:46.684Z,2.80
2023-03-24T13:01:07.705Z,2.50
2023-03-24T13:06:30.792Z,1.75
2023-03-24T13:11:36.272Z,2.40
2023-03-24T13:16:38.024Z,2.28
2023-03-24T13:21:40.096Z,2.75
2023-03-24T13:26:42.719Z,1.67
2023-03-24T13:32:05.331Z,2.47
2023-03-24T13:37:15.128Z,2.47
2023-03-24T13:42:29.899Z,3.17
2023-03-24T13:47:50.869Z,2.60
2023-03-24T13:52:52.405Z,2.90
2023-03-24T13:58:01.645Z,2.83
2023-03-24T14:03:06.055Z,3.03
2023-03-24T14:08:07.567Z,2.75
2023-03-24T14:13:12.098Z,2.63
2023-03-24T14:18:22.886Z,2.30
2023-03-24T14:23:31.799Z,2.47
2023-03-24T14:28:40.409Z,2.33
2023-03-24T14:34:02.414Z,3.17
2023-03-24T14:39:11.479Z,2.33
2023-03-24T14:44:15.818Z,3.27
2023-03-24T14:49:20.064Z,2.47
2023-03-24T14:54:47.784Z,2.35
2023-03-24T15:00:11.860Z,2.05
2023-03-24T15:05:21.972Z,3.25
2023-03-24T15:10:24.325Z,2.65
2023-03-24T15:15:25.967Z,2.13
2023-03-24T15:20:33.669Z,2.85
2023-03-24T15:25:41.473Z,2.63
2023-03-24T15:30:42.967Z,3.45
2023-03-24T15:35:45.571Z,2.00
2023-03-24T15:41:07.796Z,2.78
2023-03-24T15:46:19.634Z,3.00
2023-03-24T15:51:41.216Z,2.45
2023-03-24T15:56:42.595Z,2.50
2023-03-24T16:01:45.278Z,2.28
2023-03-24T16:06:53.570Z,1.80
2023-03-24T16:11:56.359Z,2.78
2023-03-24T16:17:02.814Z,2.17
2023-03-24T16:22:09.130Z,2.70
2023-03-24T16:27:13.410Z,2.33
2023-03-24T16:32:14.939Z,3.13
2023-03-24T16:37:16.335Z,2.95
2023-03-24T16:42:17.793Z,1.98
2023-03-24T16:47:19.359Z,2.33
2023-03-24T16:52:21.087Z,2.45
2023-03-24T16:57:22.478Z,2.55
2023-03-24T17:02:24.023Z,2.50
2023-03-24T17:07:25.642Z,2.40
2023-03-24T17:12:27.670Z,1.98
2023-03-24T17:17:29.033Z,2.90
2023-03-24T17:22:30.403Z,2.05
2023-03-24T17:27:31.804Z,2.13
2023-03-24T17:32:33.668Z,2.00
2023-03-24T17:37:36.746Z,2.40
2023-03-24T17:42:38.636Z,2.20
2023-03-24T17:47:40.495Z,2.22
2023-03-24T17:52:46.288Z,3.10
2023-03-24T17:57:47.740Z,2.15
2023-03-24T18:02:49.783Z,3.08
2023-03-24T18:07:51.249Z,2.30
2023-03-24T18:12:54.601Z,1.85
2023-03-24T18:17:56.439Z,1.50
2023-03-24T18:22:58.107Z,2.40
2023-03-24T18:27:59.560Z,2.15
2023-03-24T18:33:01.348Z,1.67
2023-03-24T18:38:02.894Z,1.83
2023-03-24T18:43:04.364Z,1.50
2023-03-24T18:48:07.321Z,2.00
2023-03-24T18:53:08.847Z,1.77
2023-03-24T18:58:15.068Z,1.77
2023-03-24T19:03:16.989Z,1.30
2023-03-24T19:08:21.877Z,2.30
2023-03-24T19:13:23.368Z,2.20
2023-03-24T19:18:25.050Z,2.45
2023-03-24T19:23:26.748Z,2.38
2023-03-24T19:28:29.757Z,2.50
2023-03-24T19:33:31.296Z,2.72
2023-03-24T19:38:32.720Z,2.88
2023-03-24T19:43:34.808Z,3.15
2023-03-24T19:48:36.566Z,2.85
2023-03-24T19:53:38.114Z,2.70
2023-03-24T19:58:39.942Z,3.28
2023-03-24T20:03:41.602Z,3.45
2023-03-24T20:08:43.084Z,2.70
2023-03-24T20:13:44.467Z,2.72
2023-03-24T20:18:45.982Z,2.42
2023-03-24T20:23:47.496Z,2.65
2023-03-24T20:28:49.071Z,3.30
2023-03-24T20:33:51.131Z,2.53
2023-03-24T20:38:52.688Z,2.72
2023-03-24T20:43:54.175Z,2.90
2023-03-24T20:48:56.058Z,2.90
2023-03-24T20:53:57.788Z,2.53
2023-03-24T20:59:01.065Z,3.28
2023-03-24T21:04:09.235Z,2.55
2023-03-24T21:09:10.919Z,2.70
2023-03-24T21:14:12.368Z,3.00
2023-03-24T21:19:14.628Z,3.35
2023-03-24T21:24:16.688Z,3.28
2023-03-24T21:29:18.240Z,2.88
2023-03-24T21:34:19.798Z,3.22
2023-03-24T21:39:21.891Z,2.70
2023-03-24T21:44:23.443Z,3.03
2023-03-24T21:49:24.992Z,3.42
2023-03-24T21:54:26.954Z,3.45
2023-03-24T21:59:28.685Z,3.67
2023-03-24T22:04:30.050Z,4.28
2023-03-24T22:09:31.449Z,2.95
2023-03-24T22:14:32.972Z,3.10
2023-03-24T22:19:34.403Z,2.78
2023-03-24T22:24:36.087Z,3.15
2023-03-24T22:29:37.466Z,2.80
2023-03-24T22:34:40.397Z,2.58
2023-03-24T22:39:41.813Z,2.72
2023-03-24T22:44:43.274Z,3.10
2023-03-24T22:49:44.685Z,2.72
2023-03-24T22:54:46.276Z,2.80
2023-03-24T22:59:47.775Z,2.72
2023-03-24T23:04:49.268Z,2.70
2023-03-24T23:09:53.282Z,3.65
2023-03-24T23:14:54.884Z,3.08
2023-03-24T23:19:56.382Z,3.70
2023-03-24T23:25:02.295Z,3.38
2023-03-24T23:30:06.018Z,2.90
2023-03-24T23:35:08.861Z,4.57
2023-03-24T23:40:15.045Z,3.03
2023-03-24T23:45:18.084Z,3.63
2023-03-24T23:50:20.450Z,2.80
2023-03-24T23:55:22.361Z,3.83
